Time;durP1;ratioP1;P1;durP2;ratioP2;P2;SDS_P1;SDS_P2;PMS_P1;PMS_P2;Temp;Humidity;BMP_temperature;BMP_pressure;BME280_temperature;BME280_humidity;BME280_pressure;Samples;Min_cycle;Max_cycle;Signal;HPM_P1;HPM_P2
2023/09/01 00:02:04;;;;;;;6.80;5.22;;;15.60;99.90;;;;;;4998777;28;20049;-76
2023/09/01 00:04:47;;;;;;;8.15;5.50;;;15.50;99.90;;;;;;5021546;28;20034;-79
2023/09/01 00:07:15;;;;;;;8.32;4.93;;;15.40;99.90;;;;;;5004492;28;20076;-78
2023/09/01 00:09:43;;;;;;;7.25;5.15;;;15.30;99.90;;;;;;4997838;28;20096;-77
2023/09/01 00:12:12;;;;;;;9.77;5.20;;;15.30;99.90;;;;;;4998717;28;20446;-78
2023/09/01 00:14:39;;;;;;;9.73;4.47;;;15.20;99.90;;;;;;4994035;28;20481;-78
2023/09/01 00:17:08;;;;;;;8.07;5.00;;;15.30;99.90;;;;;;4961566;28;20045;-75
2023/09/01 00:19:36;;;;;;;12.13;4.93;;;15.30;99.90;;;;;;4978689;28;20074;-78
2023/09/01 00:22:04;;;;;;;8.30;5.13;;;15.30;99.90;;;;;;4962787;28;20511;-79
2023/09/01 00:24:33;;;;;;;6.93;4.57;;;15.30;99.90;;;;;;4963166;28;20501;-78
2023/09/01 00:27:00;;;;;;;6.93;4.63;;;15.50;99.90;;;;;;4961013;28;20494;-78
2023/09/01 00:29:33;;;;;;;6.55;4.03;;;15.40;99.90;;;;;;4958411;28;20050;-79
2023/09/01 00:32:00;;;;;;;6.60;4.00;;;15.30;99.90;;;;;;4962857;28;20046;-77
2023/09/01 00:34:30;;;;;;;6.88;4.40;;;15.20;99.90;;;;;;4980869;28;20039;-80
2023/09/01 00:36:58;;;;;;;7.95;4.30;;;15.10;99.90;;;;;;4962263;28;20487;-77
2023/09/01 00:39:25;;;;;;;7.40;4.68;;;15.10;99.90;;;;;;4983050;28;20042;-78
2023/09/01 00:41:53;;;;;;;8.20;4.30;;;15.00;99.90;;;;;;4983228;28;20129;-78
2023/09/01 00:44:22;;;;;;;5.78;4.25;;;15.00;99.90;;;;;;4965546;28;20089;-76
2023/09/01 00:46:51;;;;;;;6.05;4.38;;;15.10;99.90;;;;;;4966075;28;20054;-78
2023/09/01 00:49:21;;;;;;;6.15;4.20;;;15.20;99.90;;;;;;4983408;28;20035;-78
2023/09/01 00:51:49;;;;;;;8.80;3.90;;;15.30;99.90;;;;;;4984992;28;20047;-79
2023/09/01 00:54:16;;;;;;;6.22;4.47;;;15.10;99.90;;;;;;4966019;28;20053;-79
2023/09/01 00:56:45;;;;;;;6.95;4.70;;;15.00;99.90;;;;;;4965836;28;20094;-77
2023/09/01 00:59:14;;;;;;;5.50;4.72;;;14.80;99.90;;;;;;4983672;28;20110;-79
2023/09/01 01:01:44;;;;;;;6.40;4.70;;;14.80;99.90;;;;;;4997995;28;20054;-78
2023/09/01 01:04:15;;;;;;;8.38;4.97;;;15.00;99.90;;;;;;4992483;28;20054;-77
2023/09/01 01:06:52;;;;;;;7.13;5.05;;;15.10;99.90;;;;;;5002710;28;20068;-80
2023/09/01 01:09:33;;;;;;;8.90;5.40;;;15.10;99.90;;;;;;4978880;28;20058;-80
2023/09/01 01:12:07;;;;;;;8.52;5.28;;;15.00;99.90;;;;;;4982894;28;20043;-79
2023/09/01 01:14:40;;;;;;;9.07;5.00;;;14.90;99.90;;;;;;4973599;28;20137;-79
2023/09/01 01:17:09;;;;;;;6.78;5.45;;;14.80;99.90;;;;;;4987139;28;20034;-77
2023/09/01 01:19:49;;;;;;;9.32;6.25;;;14.70;99.90;;;;;;4969930;28;20050;-78
2023/09/01 01:22:21;;;;;;;8.77;6.20;;;14.60;99.90;;;;;;4986790;28;20046;-77
2023/09/01 01:24:50;;;;;;;5.85;4.70;;;14.60;99.90;;;;;;4982866;28;20126;-79
2023/09/01 01:27:19;;;;;;;5.90;3.97;;;14.60;99.90;;;;;;4962834;28;20054;-77
2023/09/01 01:29:47;;;;;;;8.82;4.25;;;14.50;99.90;;;;;;4967183;28;20070;-76
2023/09/01 01:32:15;;;;;;;4.72;3.90;;;14.70;99.90;;;;;;4970393;28;20038;-78
2023/09/01 01:34:50;;;;;;;5.47;4.00;;;14.70;99.90;;;;;;4991994;28;20054;-76
2023/09/01 01:37:26;;;;;;;5.97;4.43;;;14.70;99.90;;;;;;4985688;28;20053;-77
2023/09/01 01:39:56;;;;;;;9.60;4.82;;;14.80;99.90;;;;;;4984479;28;20049;-78
2023/09/01 01:42:29;;;;;;;9.32;4.45;;;14.90;99.90;;;;;;4963493;28;20046;-76
2023/09/01 01:44:59;;;;;;;7.35;4.38;;;14.70;99.90;;;;;;4963997;28;20043;-77
2023/09/01 01:47:26;;;;;;;10.85;5.47;;;14.60;99.90;;;;;;4966606;28;20051;-79
2023/09/01 01:49:54;;;;;;;9.82;5.93;;;14.60;99.90;;;;;;4964576;28;20050;-78
2023/09/01 01:52:21;;;;;;;9.40;5.15;;;14.60;99.90;;;;;;4980638;28;20054;-78
2023/09/01 01:54:49;;;;;;;8.52;5.53;;;14.70;99.90;;;;;;4962876;28;20458;-78
2023/09/01 01:57:19;;;;;;;8.13;5.38;;;14.70;99.90;;;;;;4980770;28;20628;-79
2023/09/01 01:59:47;;;;;;;7.03;6.00;;;14.70;99.90;;;;;;4964632;28;20553;-76
2023/09/01 02:02:14;;;;;;;8.07;6.32;;;14.60;99.90;;;;;;4963410;28;20101;-75
2023/09/01 02:04:42;;;;;;;41.08;8.30;;;14.60;99.90;;;;;;4965180;28;20043;-78
2023/09/01 02:07:10;;;;;;;26.67;7.88;;;14.50;99.90;;;;;;4964750;28;20240;-78
2023/09/01 02:09:37;;;;;;;10.60;7.57;;;14.40;99.90;;;;;;4981222;28;20197;-76
2023/09/01 02:12:05;;;;;;;12.48;8.35;;;14.40;99.90;;;;;;4962822;28;20035;-78
2023/09/01 02:14:37;;;;;;;12.00;8.23;;;14.60;99.90;;;;;;4964465;28;20047;-78
2023/09/01 02:17:05;;;;;;;13.25;7.40;;;14.60;99.90;;;;;;4972996;28;20050;-77
2023/09/01 02:19:37;;;;;;;14.75;8.38;;;14.60;99.90;;;;;;4990384;28;20054;-77
2023/09/01 02:22:05;;;;;;;13.50;9.32;;;14.50;99.90;;;;;;4972120;28;20487;-77
2023/09/01 02:24:33;;;;;;;10.60;8.10;;;14.50;99.90;;;;;;4973550;28;20526;-79
2023/09/01 02:27:00;;;;;;;12.32;8.50;;;14.40;99.90;;;;;;4972494;28;20399;-77
2023/09/01 02:29:28;;;;;;;11.63;8.63;;;14.40;99.90;;;;;;4973294;28;20050;-76
2023/09/01 02:31:58;;;;;;;12.77;7.90;;;14.30;99.90;;;;;;4989383;28;20117;-78
2023/09/01 02:34:25;;;;;;;12.35;8.25;;;14.30;99.90;;;;;;4973167;28;20038;-77
2023/09/01 02:36:53;;;;;;;10.52;7.13;;;14.30;99.90;;;;;;4987552;28;20085;-78
2023/09/01 02:39:20;;;;;;;10.90;6.82;;;14.30;99.90;;;;;;4973364;28;20502;-77
2023/09/01 02:41:48;;;;;;;10.25;7.10;;;14.30;99.90;;;;;;4971945;28;20070;-78
2023/09/01 02:44:15;;;;;;;11.70;7.20;;;14.40;99.90;;;;;;4972706;28;20038;-76
2023/09/01 02:46:43;;;;;;;9.75;7.38;;;14.40;99.90;;;;;;4972571;28;20130;-77
2023/09/01 02:49:12;;;;;;;8.10;6.70;;;14.40;99.90;;;;;;4971197;28;20104;-76
2023/09/01 02:51:40;;;;;;;13.18;6.93;;;14.50;99.90;;;;;;4972188;28;20650;-78
2023/09/01 02:54:07;;;;;;;9.65;7.47;;;14.50;99.90;;;;;;4972607;28;20043;-78
2023/09/01 02:56:35;;;;;;;12.57;6.75;;;14.50;99.90;;;;;;4972279;28;20529;-79
2023/09/01 02:59:02;;;;;;;11.45;6.53;;;14.50;99.90;;;;;;4970750;28;20043;-78
2023/09/01 03:01:30;;;;;;;15.15;7.78;;;14.40;99.90;;;;;;4972366;28;20474;-79
2023/09/01 03:03:58;;;;;;;9.77;7.13;;;14.30;99.90;;;;;;4972202;28;20045;-78
2023/09/01 03:06:27;;;;;;;10.00;6.88;;;14.30;99.90;;;;;;4971106;28;20065;-78
2023/09/01 03:08:55;;;;;;;11.20;8.27;;;14.30;99.90;;;;;;4988922;28;20502;-76
2023/09/01 03:11:22;;;;;;;12.25;7.93;;;14.30;99.90;;;;;;4972493;28;20089;-77
2023/09/01 03:13:50;;;;;;;10.43;7.78;;;14.30;99.90;;;;;;4972119;28;20125;-78
2023/09/01 03:16:17;;;;;;;11.10;8.20;;;14.30;99.90;;;;;;4992828;28;20052;-77
2023/09/01 03:18:45;;;;;;;10.70;7.97;;;14.30;99.90;;;;;;5001532;28;20050;-77
2023/09/01 03:21:13;;;;;;;12.15;7.88;;;14.30;99.90;;;;;;4999650;28;20390;-77
2023/09/01 03:23:43;;;;;;;11.05;7.20;;;14.30;99.90;;;;;;5006113;28;20633;-77
2023/09/01 03:26:10;;;;;;;24.10;7.13;;;14.40;99.90;;;;;;4999709;28;20069;-77
2023/09/01 03:28:40;;;;;;;13.77;8.23;;;14.40;99.90;;;;;;4997064;28;20401;-77
2023/09/01 03:31:11;;;;;;;17.23;7.57;;;14.30;99.90;;;;;;4999117;28;20039;-77
2023/09/01 03:33:42;;;;;;;11.50;8.38;;;14.20;99.90;;;;;;4996633;28;20058;-78
2023/09/01 03:36:10;;;;;;;17.67;9.48;;;14.10;99.90;;;;;;4995654;28;20042;-76
2023/09/01 03:38:37;;;;;;;12.05;7.80;;;13.90;99.90;;;;;;4997455;28;20060;-79
2023/09/01 03:41:07;;;;;;;10.43;8.07;;;13.90;99.90;;;;;;5005221;28;20034;-78
2023/09/01 03:43:36;;;;;;;13.27;8.13;;;13.90;99.90;;;;;;4998471;28;20050;-78
2023/09/01 03:46:04;;;;;;;13.85;7.65;;;13.90;99.90;;;;;;5001931;28;20045;-78
2023/09/01 03:48:31;;;;;;;15.45;8.85;;;14.00;99.90;;;;;;4998578;28;20514;-77
2023/09/01 03:51:12;;;;;;;14.35;8.10;;;14.00;99.90;;;;;;4995909;28;20544;-76
2023/09/01 03:53:40;;;;;;;10.65;8.52;;;13.90;99.90;;;;;;5021623;28;20046;-77
2023/09/01 03:56:12;;;;;;;12.13;6.57;;;13.90;99.90;;;;;;4997243;28;20074;-77
2023/09/01 03:58:41;;;;;;;13.55;7.43;;;13.80;99.90;;;;;;4994265;28;20050;-77
2023/09/01 04:01:09;;;;;;;12.32;7.82;;;13.80;99.90;;;;;;4997732;28;20050;-78
2023/09/01 04:03:38;;;;;;;10.43;6.97;;;13.90;99.90;;;;;;4997637;28;20058;-77
2023/09/01 04:06:06;;;;;;;18.95;7.03;;;14.00;99.90;;;;;;5018300;23;20059;-75
2023/09/01 04:08:35;;;;;;;12.40;7.68;;;14.10;99.90;;;;;;5017847;28;20033;-76
2023/09/01 04:11:03;;;;;;;8.57;6.05;;;14.10;99.90;;;;;;5023498;28;20060;-73
2023/09/01 04:13:33;;;;;;;9.55;5.60;;;14.20;99.90;;;;;;5038829;28;20061;-75
2023/09/01 04:16:02;;;;;;;6.25;4.88;;;14.20;99.90;;;;;;5013592;28;20045;-76
2023/09/01 04:18:30;;;;;;;8.95;5.30;;;14.20;99.90;;;;;;5027737;28;20052;-76
2023/09/01 04:20:58;;;;;;;8.30;5.57;;;14.20;99.90;;;;;;5024086;28;20046;-76
2023/09/01 04:23:25;;;;;;;8.65;5.50;;;14.20;99.90;;;;;;5030474;28;20041;-76
2023/09/01 04:25:53;;;;;;;7.57;5.50;;;14.20;99.90;;;;;;5021303;28;20540;-76
2023/09/01 04:28:25;;;;;;;7.35;5.32;;;14.20;99.90;;;;;;5006863;28;20041;-77
2023/09/01 04:30:54;;;;;;;8.23;6.05;;;14.20;99.90;;;;;;5005775;28;20049;-76
2023/09/01 04:33:22;;;;;;;8.15;5.72;;;14.30;99.90;;;;;;5019631;28;20050;-76
2023/09/01 04:35:57;;;;;;;8.85;5.45;;;14.20;99.90;;;;;;5025168;28;20046;-76
2023/09/01 04:38:24;;;;;;;9.70;5.88;;;14.20;99.90;;;;;;5023223;28;20050;-76
2023/09/01 04:40:57;;;;;;;17.15;6.43;;;14.10;99.90;;;;;;5021685;28;20612;-77
2023/09/01 04:43:26;;;;;;;9.57;7.40;;;14.20;99.90;;;;;;5012129;28;20511;-78
2023/09/01 04:45:57;;;;;;;13.40;8.55;;;14.20;99.90;;;;;;5003690;28;20382;-77
2023/09/01 04:48:26;;;;;;;10.90;8.82;;;14.30;99.90;;;;;;5021319;28;20100;-78
2023/09/01 04:50:56;;;;;;;13.52;9.40;;;14.30;99.90;;;;;;5013282;28;20489;-76
2023/09/01 04:53:24;;;;;;;12.02;9.55;;;14.30;99.90;;;;;;5004805;28;20105;-77
2023/09/01 04:55:53;;;;;;;12.30;7.75;;;14.30;99.90;;;;;;5005320;28;20121;-77
2023/09/01 04:58:21;;;;;;;15.98;10.25;;;14.40;99.90;;;;;;5023352;28;20061;-74
2023/09/01 05:00:49;;;;;;;14.63;8.73;;;14.50;99.90;;;;;;5021436;28;20386;-77
2023/09/01 05:03:18;;;;;;;11.07;8.07;;;14.80;99.90;;;;;;5013851;28;20140;-76
2023/09/01 05:05:47;;;;;;;18.85;9.45;;;14.80;99.90;;;;;;5008291;28;20476;-75
2023/09/01 05:08:14;;;;;;;16.48;10.27;;;14.90;99.90;;;;;;5004943;28;20044;-76
2023/09/01 05:10:42;;;;;;;18.70;13.93;;;14.80;99.90;;;;;;5004786;28;20046;-77
2023/09/01 05:13:09;;;;;;;26.48;11.48;;;14.80;99.90;;;;;;5016283;28;20092;-77
2023/09/01 05:15:37;;;;;;;17.40;11.20;;;14.70;99.90;;;;;;5013739;28;20057;-75
2023/09/01 05:18:06;;;;;;;18.88;12.13;;;14.60;99.90;;;;;;5003489;28;20046;-77
2023/09/01 05:20:35;;;;;;;24.17;14.30;;;14.70;99.90;;;;;;5021408;28;20136;-76
2023/09/01 05:23:02;;;;;;;24.17;18.52;;;14.70;99.90;;;;;;5005278;28;20383;-77
2023/09/01 05:25:31;;;;;;;17.23;11.98;;;14.70;99.90;;;;;;5021517;28;20085;-77
2023/09/01 05:28:00;;;;;;;20.63;13.68;;;14.80;99.90;;;;;;5000552;28;20045;-76
2023/09/01 05:30:28;;;;;;;17.50;11.32;;;14.90;99.90;;;;;;5013795;28;20038;-74
2023/09/01 05:32:55;;;;;;;27.13;15.88;;;15.10;99.90;;;;;;5024299;28;20041;-75
2023/09/01 05:35:23;;;;;;;25.25;17.63;;;15.20;99.90;;;;;;5007767;28;20048;-74
2023/09/01 05:37:53;;;;;;;16.48;10.73;;;15.20;99.90;;;;;;5022700;28;20095;-75
2023/09/01 05:40:22;;;;;;;32.45;19.10;;;15.40;99.90;;;;;;5004183;28;20355;-73
2023/09/01 05:42:50;;;;;;;20.15;12.25;;;15.40;99.90;;;;;;5025024;28;20378;-74
2023/09/01 05:45:18;;;;;;;21.40;14.05;;;15.40;99.90;;;;;;5005733;28;20059;-75
2023/09/01 05:47:45;;;;;;;24.52;15.98;;;15.60;99.90;;;;;;5005755;28;20083;-75
2023/09/01 05:50:13;;;;;;;34.63;21.20;;;15.70;99.90;;;;;;5003895;28;20045;-75
2023/09/01 05:52:40;;;;;;;17.85;12.88;;;16.00;99.90;;;;;;5003236;28;20046;-75
2023/09/01 05:55:10;;;;;;;17.95;13.35;;;16.30;99.90;;;;;;5020421;28;20584;-75
2023/09/01 05:57:37;;;;;;;24.55;18.70;;;16.50;99.90;;;;;;5021019;28;20456;-75
2023/09/01 06:00:06;;;;;;;22.95;16.35;;;16.60;99.90;;;;;;5027559;28;20069;-75
2023/09/01 06:02:39;;;;;;;21.00;14.02;;;16.80;99.90;;;;;;5026910;28;20046;-74
2023/09/01 06:05:08;;;;;;;15.70;10.65;;;17.10;99.90;;;;;;5012755;28;20084;-75
2023/09/01 06:07:37;;;;;;;14.57;11.25;;;17.40;99.90;;;;;;5021714;28;20050;-75
2023/09/01 06:10:04;;;;;;;14.35;9.35;;;17.70;99.90;;;;;;5005512;28;20704;-75
2023/09/01 06:12:33;;;;;;;13.68;8.90;;;17.80;99.90;;;;;;5023216;28;20125;-76
2023/09/01 06:15:23;;;;;;;11.80;8.00;;;18.00;99.90;;;;;;5013872;28;20042;-76
2023/09/01 06:17:50;;;;;;;11.43;7.78;;;18.20;99.90;;;;;;5023299;28;20038;-74
2023/09/01 06:20:21;;;;;;;12.57;9.00;;;18.40;99.90;;;;;;5016782;23;20045;-74
2023/09/01 06:26:38;;;;;;;11.57;8.52;;;18.80;99.90;;;;;;4905508;29;20062;-75
2023/09/01 06:29:07;;;;;;;8.00;6.40;;;19.00;99.90;;;;;;4891559;29;20051;-74
2023/09/01 06:31:36;;;;;;;7.25;5.90;;;19.30;99.90;;;;;;4906696;29;20053;-75
2023/09/01 06:34:06;;;;;;;8.05;6.05;;;19.40;99.90;;;;;;4896722;29;20096;-75
2023/09/01 06:36:38;;;;;;;10.68;6.25;;;19.70;99.90;;;;;;4871273;29;20140;-74
2023/09/01 06:39:06;;;;;;;13.10;8.02;;;19.80;99.90;;;;;;4884661;29;20181;-73
2023/09/01 06:41:36;;;;;;;8.70;5.60;;;20.00;99.90;;;;;;4846447;29;20041;-73
2023/09/01 06:44:09;;;;;;;11.20;7.32;;;20.20;99.90;;;;;;4883096;29;20075;-73
2023/09/01 06:46:36;;;;;;;7.25;5.68;;;20.40;99.90;;;;;;4871020;28;20417;-74
2023/09/01 06:49:06;;;;;;;8.35;6.05;;;20.50;99.90;;;;;;4997895;28;20124;-75
2023/09/01 06:51:34;;;;;;;11.65;7.13;;;20.50;99.90;;;;;;5000271;28;20042;-75
2023/09/01 06:54:02;;;;;;;8.90;6.57;;;20.70;99.90;;;;;;5001266;28;20061;-75
2023/09/01 06:56:30;;;;;;;10.80;7.65;;;20.90;99.90;;;;;;5000297;28;20493;-73
2023/09/01 06:58:57;;;;;;;11.88;7.75;;;21.00;99.90;;;;;;5000969;28;20042;-76
2023/09/01 07:01:27;;;;;;;11.90;6.97;;;21.20;99.90;;;;;;4998890;28;20068;-74
2023/09/01 07:03:55;;;;;;;10.50;7.07;;;21.30;99.90;;;;;;5007368;28;20049;-74
2023/09/01 07:06:23;;;;;;;12.55;10.32;;;21.30;99.90;;;;;;5013071;28;20105;-74
2023/09/01 07:08:50;;;;;;;14.00;7.78;;;21.30;99.90;;;;;;5008646;28;20038;-74
2023/09/01 07:11:35;;;;;;;;;;;;;;;;;;;;;
2023/09/01 07:14:06;;;;;;;13.25;10.43;;;21.30;99.90;;;;;;4998025;28;20037;-74
2023/09/01 07:16:35;;;;;;;10.02;8.23;;;21.30;99.90;;;;;;5000865;28;20073;-74
2023/09/01 07:19:17;;;;;;;14.57;10.63;;;21.30;99.90;;;;;;4977626;28;20058;-75
2023/09/01 07:21:44;;;;;;;10.40;8.60;;;21.30;99.90;;;;;;4992521;28;20057;-76
2023/09/01 07:24:12;;;;;;;11.32;8.23;;;21.30;99.90;;;;;;5004943;28;20046;-74
2023/09/01 07:26:40;;;;;;;12.43;7.60;;;21.40;99.90;;;;;;4980975;28;20053;-73
2023/09/01 07:29:08;;;;;;;12.80;8.20;;;21.50;99.90;;;;;;4998770;28;20034;-76
2023/09/01 07:31:37;;;;;;;11.55;8.32;;;21.70;99.90;;;;;;5011933;28;20050;-74
2023/09/01 07:34:04;;;;;;;9.13;7.93;;;21.70;99.90;;;;;;5013247;28;20377;-73
2023/09/01 07:36:32;;;;;;;9.55;7.50;;;21.70;99.90;;;;;;5007630;28;20117;-74
2023/09/01 07:38:59;;;;;;;8.43;6.35;;;21.80;99.90;;;;;;5026013;28;20044;-73
2023/09/01 07:41:27;;;;;;;10.75;6.97;;;21.80;99.90;;;;;;5004015;28;20049;-75
2023/09/01 07:43:55;;;;;;;8.95;5.97;;;21.80;99.90;;;;;;5001624;28;20567;-73
2023/09/01 07:46:23;;;;;;;9.23;6.68;;;21.80;99.90;;;;;;5003227;28;20044;-75
2023/09/01 07:48:52;;;;;;;9.07;6.15;;;21.70;99.90;;;;;;5007894;28;20042;-77
2023/09/01 07:51:19;;;;;;;23.35;9.45;;;21.80;99.90;;;;;;5018199;28;20065;-74
2023/09/01 07:53:47;;;;;;;7.70;5.38;;;22.00;99.90;;;;;;5024750;28;20216;-75
2023/09/01 07:56:15;;;;;;;13.23;5.38;;;22.10;99.90;;;;;;5024110;28;20050;-73
2023/09/01 07:58:42;;;;;;;7.68;4.47;;;22.20;99.90;;;;;;5040095;28;20045;-74
2023/09/01 08:01:10;;;;;;;17.00;4.90;;;22.50;99.90;;;;;;5021682;28;20235;-75
2023/09/01 08:03:37;;;;;;;18.52;6.10;;;22.50;99.90;;;;;;5017600;28;20058;-74
2023/09/01 08:06:07;;;;;;;25.42;8.60;;;22.40;99.90;;;;;;5021792;28;20046;-74
2023/09/01 08:08:34;;;;;;;15.73;7.18;;;22.40;99.90;;;;;;5028639;28;20068;-73
2023/09/01 08:11:02;;;;;;;25.42;6.95;;;22.40;99.90;;;;;;5018184;28;20054;-76
2023/09/01 08:13:29;;;;;;;13.82;4.63;;;22.50;99.90;;;;;;5031915;28;20049;-72
2023/09/01 08:15:57;;;;;;;10.95;4.80;;;22.60;99.90;;;;;;5031617;28;20066;-73
2023/09/01 08:18:24;;;;;;;62.58;10.93;;;22.70;99.90;;;;;;5031525;28;20034;-74
2023/09/01 08:20:52;;;;;;;16.70;7.30;;;22.90;99.90;;;;;;5036939;28;20501;-75
2023/09/01 08:23:21;;;;;;;10.18;6.43;;;23.20;99.90;;;;;;4999697;28;20069;-73
2023/09/01 08:25:56;;;;;;;10.35;6.28;;;23.40;99.90;;;;;;4978926;28;20053;-75
2023/09/01 08:28:25;;;;;;;12.40;5.53;;;23.50;99.90;;;;;;4996985;28;20450;-74
2023/09/01 08:31:00;;;;;;;18.65;5.97;;;23.50;99.90;;;;;;4986718;28;20122;-74
2023/09/01 08:33:27;;;;;;;13.95;5.90;;;23.40;99.90;;;;;;4980044;28;20042;-73
2023/09/01 08:35:55;;;;;;;9.93;5.32;;;23.40;99.90;;;;;;4980287;28;20081;-73
2023/09/01 08:38:24;;;;;;;262.55;55.30;;;23.30;99.90;;;;;;4984470;28;20569;-74
2023/09/01 08:40:59;;;;;;;10.52;6.90;;;23.50;99.90;;;;;;4979202;28;20046;-75
2023/09/01 08:43:28;;;;;;;9.25;5.47;;;23.50;99.90;;;;;;4981026;28;20121;-74
2023/09/01 08:45:57;;;;;;;14.85;10.93;;;23.50;99.90;;;;;;4991669;28;20110;-75
2023/09/01 08:48:25;;;;;;;13.98;9.10;;;23.70;99.90;;;;;;5003822;28;20042;-73
2023/09/01 08:50:55;;;;;;;10.70;7.00;;;23.80;99.90;;;;;;5004613;28;20118;-75
2023/09/01 08:53:26;;;;;;;19.58;9.85;;;23.90;99.90;;;;;;5001971;28;20119;-73
2023/09/01 08:55:56;;;;;;;27.55;24.55;;;24.10;99.90;;;;;;5002359;28;20300;-75
2023/09/01 08:58:24;;;;;;;9.30;6.22;;;24.10;99.90;;;;;;4985019;28;20038;-75
2023/09/01 09:00:52;;;;;;;9.80;5.50;;;24.30;99.90;;;;;;4994084;28;20042;-74
2023/09/01 09:03:20;;;;;;;13.27;7.25;;;24.30;99.90;;;;;;4998558;28;20047;-75
2023/09/01 09:05:47;;;;;;;15.25;12.48;;;24.40;99.90;;;;;;4992628;28;20042;-74
2023/09/01 09:08:20;;;;;;;8.80;6.75;;;24.50;99.90;;;;;;4985075;28;20043;-74
2023/09/01 09:10:49;;;;;;;9.90;7.28;;;24.40;99.90;;;;;;4986543;28;20042;-73
2023/09/01 09:13:27;;;;;;;10.65;5.90;;;24.40;99.90;;;;;;4986662;28;20049;-74
2023/09/01 09:16:11;;;;;;;9.13;7.30;;;24.50;99.90;;;;;;4980281;28;20039;-74
2023/09/01 09:18:41;;;;;;;17.25;14.98;;;24.60;99.90;;;;;;4984483;28;20379;-75
2023/09/01 09:21:25;;;;;;;7.60;4.47;;;24.80;99.90;;;;;;4982851;28;20042;-73
2023/09/01 09:23:54;;;;;;;5.82;4.28;;;24.90;99.90;;;;;;4986022;28;20054;-74
2023/09/01 09:26:28;;;;;;;7.57;4.93;;;24.80;99.90;;;;;;4990058;28;20046;-74
2023/09/01 09:28:55;;;;;;;6.32;4.95;;;24.70;99.90;;;;;;4993078;28;20052;-75
2023/09/01 09:31:36;;;;;;;5.68;2.50;;;24.70;99.90;;;;;;4987371;28;20050;-74
2023/09/01 09:34:18;;;;;;;4.80;3.00;;;24.80;99.90;;;;;;4996908;28;20070;-76
2023/09/01 09:36:47;;;;;;;4.50;3.45;;;24.90;99.90;;;;;;4997245;28;20106;-75
2023/09/01 09:39:24;;;;;;;6.78;4.25;;;24.90;99.90;;;;;;4984792;28;20038;-74
2023/09/01 09:41:54;;;;;;;8.63;6.35;;;24.90;99.90;;;;;;4986738;28;20043;-75
2023/09/01 09:44:29;;;;;;;5.65;4.20;;;25.10;99.90;;;;;;4985326;28;20039;-76
2023/09/01 09:46:57;;;;;;;5.43;4.55;;;25.10;99.90;;;;;;4981977;28;20046;-75
2023/09/01 09:49:25;;;;;;;5.72;3.75;;;25.10;99.90;;;;;;4983757;28;20070;-75
2023/09/01 09:51:54;;;;;;;8.85;4.85;;;25.10;99.90;;;;;;4980481;28;20154;-73
2023/09/01 09:54:24;;;;;;;5.93;4.35;;;25.20;99.90;;;;;;4983303;28;20050;-74
2023/09/01 09:56:54;;;;;;;5.25;3.55;;;25.30;99.90;;;;;;4981537;28;20133;-74
2023/09/01 09:59:29;;;;;;;6.10;4.70;;;25.20;99.90;;;;;;4983650;28;20042;-74
2023/09/01 10:01:59;;;;;;;6.20;4.60;;;25.40;99.90;;;;;;4982402;28;20061;-75
2023/09/01 10:04:28;;;;;;;5.13;3.42;;;25.50;99.90;;;;;;4982067;28;20057;-75
2023/09/01 10:06:57;;;;;;;4.80;3.53;;;25.70;99.90;;;;;;4989102;28;20498;-73
2023/09/01 10:09:24;;;;;;;5.63;3.10;;;25.80;99.90;;;;;;4979177;28;20048;-74
2023/09/01 10:11:54;;;;;;;4.47;3.00;;;25.70;99.90;;;;;;4980779;28;20066;-74
2023/09/01 10:14:23;;;;;;;4.35;3.20;;;25.70;99.90;;;;;;4973432;28;20084;-75
2023/09/01 10:16:51;;;;;;;6.45;3.50;;;25.80;99.90;;;;;;4973693;28;20055;-74
2023/09/01 10:19:23;;;;;;;5.50;3.40;;;25.90;99.90;;;;;;4981702;28;20506;-74
2023/09/01 10:21:51;;;;;;;4.07;3.10;;;26.00;99.90;;;;;;4980561;28;20493;-73
2023/09/01 10:24:18;;;;;;;5.72;3.80;;;26.00;99.90;;;;;;5010457;28;20050;-76
2023/09/01 10:27:06;;;;;;;6.07;3.55;;;25.90;99.90;;;;;;5020784;28;20487;-72
2023/09/01 10:29:35;;;;;;;5.95;4.63;;;25.70;99.90;;;;;;5025473;28;20045;-76
2023/09/01 10:32:17;;;;;;;4.50;3.28;;;25.80;99.90;;;;;;5033966;28;20528;-74
2023/09/01 10:34:52;;;;;;;5.20;4.38;;;25.80;99.90;;;;;;5027118;28;20060;-74
2023/09/01 10:37:27;;;;;;;5.60;3.25;;;25.90;99.90;;;;;;5010978;28;20497;-75
2023/09/01 10:39:55;;;;;;;4.28;3.40;;;25.90;99.90;;;;;;5019262;28;20091;-75
2023/09/01 10:42:40;;;;;;;4.10;2.85;;;25.80;99.90;;;;;;5003453;28;20064;-74
2023/09/01 10:45:13;;;;;;;3.87;2.63;;;25.80;99.90;;;;;;5019855;28;20057;-75
2023/09/01 10:47:51;;;;;;;6.47;2.80;;;25.70;99.90;;;;;;5021373;28;20311;-74
2023/09/01 10:50:19;;;;;;;4.85;3.15;;;25.80;99.90;;;;;;5001033;28;20037;-74
2023/09/01 10:53:25;;;;;;;4.78;2.50;;;25.70;99.90;;;;;;5023129;28;20049;-74
2023/09/01 10:56:10;;;;;;;4.32;2.60;;;25.70;99.90;;;;;;5018294;28;20156;-75
2023/09/01 10:58:46;;;;;;;4.72;2.65;;;25.70;99.90;;;;;;5039778;28;20069;-75
2023/09/01 11:01:37;;;;;;;5.20;2.95;;;25.70;99.90;;;;;;5020373;28;20657;-76
2023/09/01 11:04:32;;;;;;;5.43;3.22;;;25.60;99.90;;;;;;5025545;28;20394;-75
2023/09/01 11:07:11;;;;;;;3.50;2.10;;;25.70;99.90;;;;;;5007041;28;20053;-73
2023/09/01 11:10:03;;;;;;;4.03;1.90;;;25.80;99.90;;;;;;5005559;28;20046;-74
2023/09/01 11:12:33;;;;;;;2.70;1.77;;;25.70;99.90;;;;;;4999756;28;20049;-74
2023/09/01 11:15:03;;;;;;;4.18;2.95;;;25.70;99.90;;;;;;5022086;28;20056;-76
2023/09/01 11:17:40;;;;;;;10.85;8.05;;;25.80;99.90;;;;;;5017915;28;20046;-74
2023/09/01 11:20:10;;;;;;;7.25;4.47;;;26.00;99.90;;;;;;5017632;28;20100;-75
2023/09/01 11:22:41;;;;;;;4.53;2.75;;;26.20;99.90;;;;;;5020556;28;20033;-75
2023/09/01 11:25:15;;;;;;;3.47;2.47;;;26.30;99.90;;;;;;5020466;28;20042;-74
2023/09/01 11:28:00;;;;;;;3.20;1.83;;;26.40;99.90;;;;;;5023742;28;20959;-75
2023/09/01 11:30:28;;;;;;;5.87;4.33;;;26.20;99.90;;;;;;5004313;28;20062;-75
2023/09/01 11:32:57;;;;;;;2.90;1.90;;;26.20;99.90;;;;;;5015141;28;20044;-75
2023/09/01 11:35:27;;;;;;;18.80;13.43;;;26.30;99.90;;;;;;5022572;28;20071;-74
2023/09/01 11:37:55;;;;;;;18.67;16.15;;;26.40;99.90;;;;;;5013184;28;20042;-76
2023/09/01 11:40:35;;;;;;;3.30;2.30;;;26.40;99.90;;;;;;5026114;28;20049;-79
2023/09/01 11:51:14;;;;;;;133.05;110.00;;;26.80;99.90;;;;;;5010238;28;20045;-77
2023/09/01 11:54:06;;;;;;;7.60;5.30;;;26.80;99.90;;;;;;4977011;28;20074;-76
2023/09/01 12:00:31;;;;;;;31.88;26.67;;;26.80;99.90;;;;;;4974967;28;20060;-75
2023/09/01 12:03:03;;;;;;;;;;;26.80;99.90;;;;;;5011299;28;20038;-75
2023/09/01 12:05:32;;;;;;;7.28;4.28;;;26.80;99.90;;;;;;5009987;28;19928;-75
2023/09/01 12:08:02;;;;;;;9.93;7.80;;;26.90;99.90;;;;;;4992655;28;20042;-76
2023/09/01 12:10:30;;;;;;;5.35;3.75;;;26.90;99.90;;;;;;5008870;28;20095;-76
2023/09/01 12:13:07;;;;;;;3.03;1.40;;;26.70;99.90;;;;;;5009311;28;20046;-77
2023/09/01 12:15:35;;;;;;;3.88;2.00;;;26.70;99.90;;;;;;5009661;28;21055;-76
2023/09/01 12:18:28;;;;;;;3.95;2.35;;;26.40;99.90;;;;;;5008141;28;20049;-77
2023/09/01 12:20:55;;;;;;;3.28;2.28;;;26.30;99.90;;;;;;4991529;28;20065;-76
2023/09/01 12:23:29;;;;;;;2.75;1.50;;;26.40;99.90;;;;;;5008873;28;20065;-76
2023/09/01 12:25:57;;;;;;;5.35;2.45;;;26.40;99.90;;;;;;5008672;28;20493;-78
2023/09/01 12:28:28;;;;;;;2.00;1.40;;;26.90;99.90;;;;;;5008096;28;20042;-75
2023/09/01 12:30:56;;;;;;;3.13;2.00;;;27.00;99.90;;;;;;5011817;28;20038;-75
2023/09/01 12:33:24;;;;;;;3.95;2.55;;;27.10;99.90;;;;;;5010423;28;20056;-75
2023/09/01 12:35:52;;;;;;;2.95;1.90;;;27.20;99.90;;;;;;5025447;28;20141;-77
2023/09/01 12:38:20;;;;;;;3.08;2.08;;;27.20;99.90;;;;;;5035236;28;20068;-76
2023/09/01 12:40:49;;;;;;;2.50;1.65;;;27.30;99.90;;;;;;5026985;28;20489;-76
2023/09/01 12:43:24;;;;;;;6.32;4.35;;;27.10;99.90;;;;;;5015279;28;20512;-78
2023/09/01 12:45:51;;;;;;;3.38;2.70;;;27.00;99.90;;;;;;5013497;28;20048;-76
2023/09/01 12:48:19;;;;;;;2.53;1.70;;;27.10;99.90;;;;;;5013808;28;20692;-76
2023/09/01 12:50:47;;;;;;;2.53;1.60;;;27.00;99.90;;;;;;5013273;28;20116;-76
2023/09/01 12:53:15;;;;;;;3.08;2.05;;;26.90;99.90;;;;;;5012868;28;20042;-76
2023/09/01 12:55:42;;;;;;;3.50;1.90;;;26.70;99.90;;;;;;5013525;28;20454;-77
2023/09/01 12:58:11;;;;;;;3.10;2.00;;;26.80;99.90;;;;;;5013507;28;23000;-77
2023/09/01 13:00:41;;;;;;;3.95;3.17;;;26.70;99.90;;;;;;5013577;28;20042;-77
2023/09/01 13:03:08;;;;;;;3.67;2.38;;;26.60;99.90;;;;;;5013926;28;20494;-76
2023/09/01 13:05:36;;;;;;;4.22;2.97;;;26.70;99.90;;;;;;4995515;28;20603;-75
2023/09/01 13:08:04;;;;;;;5.43;1.85;;;26.70;99.90;;;;;;5012263;28;20126;-77
2023/09/01 13:10:31;;;;;;;4.90;1.60;;;26.80;99.90;;;;;;5012072;28;20080;-78
2023/09/01 13:12:59;;;;;;;6.97;5.32;;;26.80;99.90;;;;;;5011401;28;20409;-76
2023/09/01 13:15:28;;;;;;;3.45;2.40;;;26.70;99.90;;;;;;4994196;28;20034;-76